createdAt,value
2019-03-25T00:02:25.500Z,101152.00
2019-03-25T00:04:57.263Z,101141.00
2019-03-25T00:07:28.414Z,101132.00
2019-03-25T00:10:00.373Z,101137.00
2019-03-25T00:12:31.441Z,101113.00
2019-03-25T00:15:02.855Z,101117.00
2019-03-25T00:17:34.051Z,101117.00
2019-03-25T00:20:05.784Z,101110.00
2019-03-25T00:22:36.789Z,101095.00
2019-03-25T00:25:08.341Z,101092.00
2019-03-25T00:27:41.549Z,101090.00
2019-03-25T00:30:13.118Z,101077.00
2019-03-25T00:32:44.650Z,101085.00
2019-03-25T00:35:15.754Z,101069.00
2019-03-25T00:37:46.876Z,101071.00
2019-03-25T00:40:18.394Z,101068.00
2019-03-25T00:42:49.632Z,101058.00
2019-03-25T00:45:20.701Z,101046.00
2019-03-25T00:47:52.222Z,101048.00
2019-03-25T00:50:23.382Z,101030.00
2019-03-25T00:52:54.467Z,101023.00
2019-03-25T00:55:25.592Z,101010.00
2019-03-25T00:57:56.981Z,101014.00
2019-03-25T01:00:29.050Z,101014.00
2019-03-25T01:03:00.090Z,100998.00
2019-03-25T01:05:31.593Z,100988.00
2019-03-25T01:08:03.092Z,100996.00
2019-03-25T01:10:34.223Z,100975.00
2019-03-25T01:13:05.380Z,100987.00
2019-03-25T01:15:36.552Z,100973.00
2019-03-25T01:18:16.319Z,100974.00
2019-03-25T01:20:41.110Z,100973.00
2019-03-25T01:23:12.238Z,100961.00
2019-03-25T01:25:43.482Z,100963.00
2019-03-25T01:28:14.616Z,100985.00
2019-03-25T01:30:45.848Z,100953.00
2019-03-25T01:33:17.364Z,100942.00
2019-03-25T01:35:48.568Z,100939.00
2019-03-25T01:38:19.832Z,100930.00
2019-03-25T01:40:50.998Z,100937.00
2019-03-25T01:43:23.112Z,100924.00
2019-03-25T01:45:54.305Z,100917.00
2019-03-25T01:48:25.776Z,100924.00
2019-03-25T01:50:56.890Z,100907.00
2019-03-25T01:53:28.024Z,100908.00
2019-03-25T01:55:59.226Z,100921.00
2019-03-25T01:58:30.150Z,100912.00
2019-03-25T02:01:01.503Z,100908.00
2019-03-25T02:03:32.766Z,100903.00
2019-03-25T02:06:04.488Z,100889.00
2019-03-25T02:08:35.730Z,100887.00
2019-03-25T02:11:06.877Z,100875.00
2019-03-25T02:13:38.137Z,100880.00
2019-03-25T02:16:09.260Z,100880.00
2019-03-25T02:18:40.458Z,100873.00
2019-03-25T02:21:13.172Z,100861.00
2019-03-25T02:23:44.668Z,100863.00
2019-03-25T02:26:15.729Z,100854.00
2019-03-25T02:28:46.846Z,100839.00
2019-03-25T02:31:18.326Z,100832.00
2019-03-25T02:33:49.893Z,100844.00
2019-03-25T02:36:26.835Z,100835.00
2019-03-25T02:38:58.150Z,100858.00
2019-03-25T02:41:29.366Z,100851.00
2019-03-25T02:44:00.636Z,100864.00
2019-03-25T02:46:31.916Z,100886.00
2019-03-25T02:49:03.095Z,100896.00
2019-03-25T02:51:34.558Z,100909.00
2019-03-25T02:54:05.696Z,100919.00
2019-03-25T02:56:36.916Z,100920.00
2019-03-25T02:59:08.104Z,100911.00
2019-03-25T03:01:39.220Z,100920.00
2019-03-25T03:04:10.283Z,100922.00
2019-03-25T03:06:41.631Z,100919.00
2019-03-25T03:09:13.025Z,100909.00
2019-03-25T03:11:44.402Z,100907.00
2019-03-25T03:14:15.887Z,100895.00
2019-03-25T03:16:47.214Z,100889.00
2019-03-25T03:19:18.643Z,100885.00
2019-03-25T03:21:49.739Z,100887.00
2019-03-25T03:24:20.824Z,100889.00
2019-03-25T03:26:51.913Z,100882.00
2019-03-25T03:29:23.052Z,100881.00
2019-03-25T03:31:54.092Z,100885.00
2019-03-25T03:34:25.211Z,100874.00
2019-03-25T03:36:56.120Z,100889.00
2019-03-25T03:39:27.385Z,100856.00
2019-03-25T03:41:59.433Z,100873.00
2019-03-25T03:44:30.456Z,100867.00
2019-03-25T03:47:01.575Z,100878.00
2019-03-25T03:49:33.459Z,100881.00
2019-03-25T03:52:04.993Z,100872.00
2019-03-25T03:54:37.134Z,100874.00
2019-03-25T03:57:08.810Z,100867.00
2019-03-25T03:59:40.126Z,100881.00
2019-03-25T04:02:11.199Z,100877.00
2019-03-25T04:04:42.619Z,100887.00
2019-03-25T04:07:13.802Z,100878.00
2019-03-25T04:09:46.331Z,100882.00
2019-03-25T04:12:36.278Z,100887.00
2019-03-25T04:15:08.046Z,100877.00
2019-03-25T04:17:39.346Z,100870.00
2019-03-25T04:20:10.714Z,100868.00
2019-03-25T04:22:41.808Z,100884.00
2019-03-25T04:25:12.908Z,100888.00
2019-03-25T04:27:44.060Z,100883.00
2019-03-25T04:30:15.219Z,100884.00
2019-03-25T04:32:46.495Z,100884.00
2019-03-25T04:35:17.687Z,100880.00
2019-03-25T04:37:48.776Z,100888.00
2019-03-25T04:40:19.867Z,100886.00
2019-03-25T04:42:51.408Z,100882.00
2019-03-25T04:45:22.535Z,100891.00
2019-03-25T04:47:53.653Z,100885.00
2019-03-25T04:50:24.793Z,100889.00
2019-03-25T04:52:55.869Z,100876.00
2019-03-25T04:55:26.944Z,100885.00
2019-03-25T04:57:58.285Z,100877.00
2019-03-25T05:00:38.467Z,100873.00
2019-03-25T05:03:09.631Z,100890.00
2019-03-25T05:05:40.776Z,100884.00
2019-03-25T05:08:12.022Z,100873.00
2019-03-25T05:10:43.140Z,100879.00
2019-03-25T05:13:14.370Z,100871.00
2019-03-25T05:15:45.562Z,100868.00
2019-03-25T05:18:16.975Z,100876.00
2019-03-25T05:20:49.016Z,100878.00
2019-03-25T05:23:20.670Z,100870.00
2019-03-25T05:25:51.870Z,100878.00
2019-03-25T05:28:23.086Z,100871.00
2019-03-25T05:30:54.616Z,100861.00
2019-03-25T05:33:26.350Z,100862.00
2019-03-25T05:35:58.094Z,100864.00
2019-03-25T05:38:29.300Z,100869.00
2019-03-25T05:41:00.551Z,100862.00
2019-03-25T05:43:36.325Z,100857.00
2019-03-25T05:46:07.484Z,100855.00
2019-03-25T05:48:38.605Z,100844.00
2019-03-25T05:51:09.757Z,100856.00
2019-03-25T05:53:40.878Z,100838.00
2019-03-25T05:56:12.082Z,100831.00
2019-03-25T05:58:43.551Z,100838.00
2019-03-25T06:01:14.845Z,100843.00
2019-03-25T06:03:46.209Z,100826.00
2019-03-25T06:06:17.318Z,100833.00
2019-03-25T06:08:48.488Z,100834.00
2019-03-25T06:11:20.330Z,100830.00
2019-03-25T06:13:51.789Z,100836.00
2019-03-25T06:16:24.164Z,100818.00
2019-03-25T06:18:55.273Z,100830.00
2019-03-25T06:21:27.265Z,100826.00
2019-03-25T06:23:58.626Z,100828.00
2019-03-25T06:26:30.076Z,100825.00
2019-03-25T06:29:01.115Z,100823.00
2019-03-25T06:31:32.430Z,100830.00
2019-03-25T06:34:03.306Z,100814.00
2019-03-25T06:36:35.203Z,100819.00
2019-03-25T06:39:07.369Z,100813.00
2019-03-25T06:41:39.129Z,100819.00
2019-03-25T06:44:10.293Z,100808.00
2019-03-25T06:46:41.308Z,100812.00
2019-03-25T06:49:12.663Z,100816.00
2019-03-25T06:51:45.249Z,100817.00
2019-03-25T06:54:17.791Z,100814.00
2019-03-25T06:56:48.901Z,100814.00
2019-03-25T06:59:20.194Z,100811.00
2019-03-25T07:01:54.537Z,100813.00
2019-03-25T07:04:26.226Z,100819.00
2019-03-25T07:06:57.425Z,100815.00
2019-03-25T07:09:28.816Z,100812.00
2019-03-25T07:12:00.302Z,100811.00
2019-03-25T07:14:32.466Z,100827.00
2019-03-25T07:17:03.549Z,100827.00
2019-03-25T07:19:34.722Z,100827.00
2019-03-25T07:22:06.596Z,100827.00
2019-03-25T07:24:38.252Z,100827.00
2019-03-25T07:27:09.386Z,100823.00
2019-03-25T07:29:40.762Z,100823.00
2019-03-25T07:32:11.827Z,100819.00
2019-03-25T07:34:42.902Z,100820.00
2019-03-25T07:37:14.233Z,100828.00
2019-03-25T07:39:45.236Z,100833.00
2019-03-25T07:42:16.560Z,100836.00
2019-03-25T07:44:47.728Z,100844.00
2019-03-25T07:47:18.865Z,100851.00
2019-03-25T07:49:49.967Z,100829.00
2019-03-25T07:52:20.956Z,100826.00
2019-03-25T07:54:52.017Z,100836.00
2019-03-25T07:57:23.437Z,100827.00
2019-03-25T07:59:54.469Z,100843.00
2019-03-25T08:02:25.606Z,100856.00
2019-03-25T08:04:56.768Z,100850.00
2019-03-25T08:07:27.929Z,100843.00
2019-03-25T08:09:58.929Z,100843.00
2019-03-25T08:12:30.079Z,100835.00
2019-03-25T08:15:01.190Z,100837.00
2019-03-25T08:17:32.157Z,100838.00
2019-03-25T08:20:03.599Z,100835.00
2019-03-25T08:22:34.659Z,100855.00
2019-03-25T08:25:06.313Z,100851.00
2019-03-25T08:27:37.339Z,100834.00
2019-03-25T08:30:09.732Z,100839.00
2019-03-25T08:32:41.173Z,100835.00
2019-03-25T08:35:12.864Z,100848.00
2019-03-25T08:37:44.044Z,100847.00
2019-03-25T08:40:15.072Z,100839.00
2019-03-25T08:42:46.527Z,100844.00
2019-03-25T08:45:17.847Z,100837.00
2019-03-25T08:47:49.277Z,100854.00
2019-03-25T08:50:20.731Z,100865.00
2019-03-25T08:52:51.775Z,100864.00
2019-03-25T08:55:23.228Z,100878.00
2019-03-25T08:57:54.313Z,100869.00
2019-03-25T09:00:26.055Z,100868.00
2019-03-25T09:02:57.402Z,100871.00
2019-03-25T09:05:28.674Z,100870.00
2019-03-25T09:08:00.996Z,100874.00
2019-03-25T09:10:32.560Z,100882.00
2019-03-25T09:13:03.825Z,100874.00
2019-03-25T09:15:34.943Z,100885.00
2019-03-25T09:18:06.155Z,100890.00
2019-03-25T09:20:37.306Z,100880.00
2019-03-25T09:23:08.489Z,100896.00
2019-03-25T09:25:39.670Z,100898.00
2019-03-25T09:28:10.770Z,100905.00
2019-03-25T09:31:21.221Z,100900.00
2019-03-25T09:33:52.588Z,100913.00
2019-03-25T09:36:24.227Z,100886.00
2019-03-25T09:38:55.367Z,100901.00
2019-03-25T09:41:26.607Z,100899.00
2019-03-25T09:43:57.517Z,100908.00
2019-03-25T09:46:28.643Z,100919.00
2019-03-25T09:48:59.661Z,100944.00
2019-03-25T09:51:30.827Z,100965.00
2019-03-25T09:54:02.590Z,100985.00
2019-03-25T09:56:33.711Z,100966.00
2019-03-25T09:59:05.148Z,100964.00
2019-03-25T10:01:36.669Z,100971.00
2019-03-25T10:04:07.817Z,100982.00
2019-03-25T10:06:39.468Z,100985.00
2019-03-25T10:09:12.280Z,100974.00
2019-03-25T10:11:43.422Z,100978.00
2019-03-25T10:14:14.578Z,100995.00
2019-03-25T10:16:46.030Z,100984.00
2019-03-25T10:19:17.392Z,100986.00
2019-03-25T10:21:48.554Z,101000.00
2019-03-25T10:24:27.416Z,100989.00
2019-03-25T10:26:52.876Z,100996.00
2019-03-25T10:29:24.554Z,100995.00
2019-03-25T10:31:55.699Z,101005.00
2019-03-25T10:34:27.074Z,100978.00
2019-03-25T10:36:58.098Z,101001.00
2019-03-25T10:39:29.131Z,100989.00
2019-03-25T10:42:01.117Z,101011.00
2019-03-25T10:44:32.641Z,101011.00
2019-03-25T10:47:03.733Z,101015.00
2019-03-25T10:49:34.904Z,101009.00
2019-03-25T10:52:06.075Z,101024.00
2019-03-25T10:54:37.169Z,101003.00
2019-03-25T10:57:08.505Z,101020.00
2019-03-25T10:59:40.425Z,101026.00
2019-03-25T11:02:11.486Z,101015.00
2019-03-25T11:04:42.580Z,101020.00
2019-03-25T11:07:13.872Z,101021.00
2019-03-25T11:09:45.326Z,101020.00
2019-03-25T11:12:17.134Z,101063.00
2019-03-25T11:14:48.504Z,101051.00
2019-03-25T11:17:19.585Z,101058.00
2019-03-25T11:19:50.744Z,101056.00
2019-03-25T11:22:21.811Z,101040.00
2019-03-25T11:24:53.045Z,101044.00
2019-03-25T11:27:24.087Z,101045.00
2019-03-25T11:29:55.218Z,101043.00
2019-03-25T11:32:26.297Z,101039.00
2019-03-25T11:34:57.410Z,101036.00
2019-03-25T11:37:28.549Z,101025.00
2019-03-25T11:39:59.762Z,101025.00
2019-03-25T11:42:30.766Z,101018.00
2019-03-25T11:45:01.867Z,101038.00
2019-03-25T11:47:33.232Z,101040.00
2019-03-25T11:50:04.692Z,101053.00
2019-03-25T11:52:36.000Z,101056.00
2019-03-25T11:55:07.959Z,101059.00
2019-03-25T11:57:39.188Z,101058.00
2019-03-25T12:00:11.135Z,101060.00
2019-03-25T12:02:42.228Z,101058.00
2019-03-25T12:05:13.491Z,101053.00
2019-03-25T12:07:44.605Z,101070.00
2019-03-25T12:10:16.101Z,101057.00
2019-03-25T12:12:47.425Z,101057.00
2019-03-25T12:15:18.820Z,101051.00
2019-03-25T12:17:50.150Z,101045.00
2019-03-25T12:20:21.296Z,101043.00
2019-03-25T12:22:52.358Z,101049.00
2019-03-25T12:25:23.753Z,101055.00
2019-03-25T12:27:55.171Z,101048.00
2019-03-25T12:30:26.284Z,101040.00
2019-03-25T12:33:03.932Z,101069.00
2019-03-25T12:35:30.424Z,101059.00
2019-03-25T12:38:01.567Z,101052.00
2019-03-25T12:40:32.870Z,101057.00
2019-03-25T12:43:04.185Z,101055.00
2019-03-25T12:45:35.366Z,101070.00
2019-03-25T12:48:06.581Z,101061.00
2019-03-25T12:50:38.094Z,101078.00
2019-03-25T12:53:09.342Z,101154.00
2019-03-25T12:55:40.759Z,101152.00
2019-03-25T12:58:11.883Z,101143.00
2019-03-25T13:00:45.786Z,101143.00
2019-03-25T13:03:16.729Z,101134.00
2019-03-25T13:05:47.839Z,101138.00
2019-03-25T13:08:18.879Z,101138.00
2019-03-25T13:10:50.097Z,101138.00
2019-03-25T13:13:21.362Z,101146.00
2019-03-25T13:15:52.489Z,101138.00
2019-03-25T13:18:23.566Z,101143.00
2019-03-25T13:20:54.823Z,101136.00
2019-03-25T13:23:26.033Z,101113.00
2019-03-25T13:25:57.246Z,101124.00
2019-03-25T13:28:28.264Z,101136.00
2019-03-25T13:30:59.353Z,101140.00
2019-03-25T13:33:30.653Z,101143.00
2019-03-25T13:36:01.779Z,101127.00
2019-03-25T13:38:32.836Z,101136.00
2019-03-25T13:41:03.842Z,101139.00
2019-03-25T13:43:35.041Z,101143.00
2019-03-25T13:46:06.224Z,101148.00
2019-03-25T13:48:37.251Z,101144.00
2019-03-25T13:51:08.404Z,101137.00
2019-03-25T13:53:40.165Z,101145.00
2019-03-25T13:56:12.123Z,101160.00
2019-03-25T13:58:43.523Z,101168.00
2019-03-25T14:01:15.000Z,101156.00
2019-03-25T14:03:46.084Z,101145.00
2019-03-25T14:06:17.310Z,101157.00
2019-03-25T14:08:49.251Z,101157.00
2019-03-25T14:11:20.372Z,101157.00
2019-03-25T14:13:51.468Z,101162.00
2019-03-25T14:16:22.400Z,101170.00
2019-03-25T14:18:54.214Z,101163.00
2019-03-25T14:21:25.416Z,101170.00
2019-03-25T14:23:56.919Z,101193.00
2019-03-25T14:26:28.794Z,101200.00
2019-03-25T14:29:00.602Z,101194.00
2019-03-25T14:31:31.978Z,101211.00
2019-03-25T14:34:03.415Z,101209.00
2019-03-25T14:36:34.526Z,101203.00
2019-03-25T14:39:07.077Z,101213.00
2019-03-25T14:41:38.460Z,101208.00
2019-03-25T14:44:09.490Z,101205.00
2019-03-25T14:46:40.572Z,101217.00
2019-03-25T14:49:11.724Z,101225.00
2019-03-25T14:51:42.870Z,101236.00
2019-03-25T14:54:13.946Z,101240.00
2019-03-25T14:56:44.981Z,101223.00
2019-03-25T14:59:16.004Z,101225.00
2019-03-25T15:01:47.333Z,101225.00
2019-03-25T15:04:18.357Z,101227.00
2019-03-25T15:06:49.736Z,101244.00
2019-03-25T15:09:20.869Z,101245.00
2019-03-25T15:11:52.208Z,101256.00
2019-03-25T15:14:23.265Z,101266.00
2019-03-25T15:16:54.739Z,101258.00
2019-03-25T15:19:26.243Z,101274.00
2019-03-25T15:21:57.666Z,101277.00
2019-03-25T15:24:28.693Z,101275.00
2019-03-25T15:26:59.782Z,101280.00
2019-03-25T15:29:31.128Z,101292.00
2019-03-25T15:32:02.437Z,101282.00
2019-03-25T15:34:34.211Z,101298.00
2019-03-25T15:37:05.348Z,101305.00
2019-03-25T15:39:46.368Z,101301.00
2019-03-25T15:42:10.110Z,101312.00
2019-03-25T15:44:41.155Z,101312.00
2019-03-25T15:47:12.301Z,101311.00
2019-03-25T15:49:43.341Z,101308.00
2019-03-25T15:52:14.363Z,101327.00
2019-03-25T15:54:45.464Z,101322.00
2019-03-25T15:57:16.544Z,101340.00
2019-03-25T15:59:47.557Z,101322.00
2019-03-25T16:02:18.578Z,101335.00
2019-03-25T16:04:50.236Z,101335.00
2019-03-25T16:07:21.470Z,101337.00
2019-03-25T16:09:52.750Z,101352.00
2019-03-25T16:12:23.895Z,101345.00
2019-03-25T16:14:55.030Z,101370.00
2019-03-25T16:17:26.442Z,101356.00
2019-03-25T16:19:57.856Z,101361.00
2019-03-25T16:22:28.976Z,101365.00
2019-03-25T16:25:00.340Z,101374.00
2019-03-25T16:27:31.921Z,101373.00
2019-03-25T16:30:03.167Z,101383.00
2019-03-25T16:32:34.167Z,101387.00
2019-03-25T16:35:05.342Z,101389.00
2019-03-25T16:37:36.511Z,101398.00
2019-03-25T16:40:08.128Z,101414.00
2019-03-25T16:42:40.257Z,101400.00
2019-03-25T16:45:11.998Z,101403.00
2019-03-25T16:47:43.048Z,101413.00
2019-03-25T16:50:14.222Z,101415.00
2019-03-25T16:52:45.332Z,101425.00
2019-03-25T16:55:16.506Z,101442.00
2019-03-25T16:57:47.964Z,101445.00
2019-03-25T17:00:27.176Z,101443.00
2019-03-25T17:02:52.328Z,101448.00
2019-03-25T17:05:24.145Z,101453.00
2019-03-25T17:07:55.360Z,101450.00
2019-03-25T17:10:26.672Z,101472.00
2019-03-25T17:12:58.145Z,101468.00
2019-03-25T17:15:29.569Z,101474.00
2019-03-25T17:18:01.208Z,101480.00
2019-03-25T17:20:32.324Z,101491.00
2019-03-25T17:23:03.383Z,101497.00
2019-03-25T17:25:34.354Z,101498.00
2019-03-25T17:28:05.568Z,101501.00
2019-03-25T17:30:36.720Z,101516.00
2019-03-25T17:33:07.988Z,101521.00
2019-03-25T17:35:39.418Z,101527.00
2019-03-25T17:38:10.645Z,101526.00
2019-03-25T17:40:41.788Z,101534.00
2019-03-25T17:43:13.165Z,101535.00
2019-03-25T17:45:44.588Z,101543.00
2019-03-25T17:48:15.730Z,101543.00
2019-03-25T17:50:47.211Z,101553.00
2019-03-25T17:53:18.359Z,101551.00
2019-03-25T17:55:49.564Z,101569.00
2019-03-25T17:58:20.767Z,101561.00
2019-03-25T18:01:19.401Z,101572.00
2019-03-25T18:03:50.570Z,101566.00
2019-03-25T18:06:21.857Z,101577.00
2019-03-25T18:08:53.341Z,101585.00
2019-03-25T18:11:24.479Z,101585.00
2019-03-25T18:13:55.736Z,101592.00
2019-03-25T18:16:27.100Z,101584.00
2019-03-25T18:18:58.173Z,101606.00
2019-03-25T18:21:29.614Z,101615.00
2019-03-25T18:24:01.136Z,101615.00
2019-03-25T18:26:32.220Z,101615.00
2019-03-25T18:29:03.807Z,101620.00
2019-03-25T18:31:43.253Z,101625.00
2019-03-25T18:34:18.861Z,101620.00
2019-03-25T18:36:49.952Z,101627.00
2019-03-25T18:39:21.323Z,101635.00
2019-03-25T18:41:52.812Z,101640.00
2019-03-25T18:44:24.438Z,101648.00
2019-03-25T18:47:01.541Z,101652.00
2019-03-25T18:49:32.874Z,101662.00
2019-03-25T18:52:03.985Z,101669.00
2019-03-25T18:54:41.452Z,101666.00
2019-03-25T18:57:12.736Z,101670.00
2019-03-25T18:59:44.518Z,101682.00
2019-03-25T19:02:15.736Z,101684.00
2019-03-25T19:04:48.977Z,101687.00
2019-03-25T19:07:20.252Z,101692.00
2019-03-25T19:09:53.872Z,101705.00
2019-03-25T19:12:25.048Z,101708.00
2019-03-25T19:14:56.487Z,101715.00
2019-03-25T19:17:30.059Z,101727.00
2019-03-25T19:20:01.190Z,101731.00
2019-03-25T19:22:32.572Z,101719.00
2019-03-25T19:25:04.074Z,101719.00
2019-03-25T19:27:42.110Z,101725.00
2019-03-25T19:30:13.863Z,101732.00
2019-03-25T19:32:45.458Z,101741.00
2019-03-25T19:35:16.467Z,101745.00
2019-03-25T19:37:47.655Z,101746.00
2019-03-25T19:40:19.060Z,101761.00
2019-03-25T19:42:50.317Z,101754.00
2019-03-25T19:45:21.558Z,101749.00
2019-03-25T19:47:53.539Z,101757.00
2019-03-25T19:50:24.868Z,101758.00
2019-03-25T19:52:57.372Z,101768.00
2019-03-25T19:55:28.812Z,101781.00
2019-03-25T19:58:00.571Z,101771.00
2019-03-25T20:00:43.722Z,101773.00
2019-03-25T20:03:15.321Z,101776.00
2019-03-25T20:05:46.553Z,101783.00
2019-03-25T20:08:17.861Z,101780.00
2019-03-25T20:10:49.398Z,101790.00
2019-03-25T20:13:20.678Z,101791.00
2019-03-25T20:15:51.929Z,101793.00
2019-03-25T20:18:23.244Z,101797.00
2019-03-25T20:20:54.422Z,101795.00
2019-03-25T20:23:25.723Z,101804.00
2019-03-25T20:25:56.844Z,101802.00
2019-03-25T20:28:28.142Z,101807.00
2019-03-25T20:30:59.375Z,101812.00
2019-03-25T20:33:30.858Z,101812.00
2019-03-25T20:36:02.051Z,101814.00
2019-03-25T20:38:33.487Z,101823.00
2019-03-25T20:41:04.937Z,101823.00
2019-03-25T20:43:36.678Z,101833.00
2019-03-25T20:46:07.825Z,101838.00
2019-03-25T20:48:38.924Z,101839.00
2019-03-25T20:51:10.128Z,101846.00
2019-03-25T20:53:42.447Z,101853.00
2019-03-25T20:56:13.625Z,101862.00
2019-03-25T20:58:45.255Z,101869.00
2019-03-25T21:01:17.017Z,101871.00
2019-03-25T21:03:49.237Z,101880.00
2019-03-25T21:06:21.034Z,101876.00
2019-03-25T21:08:52.245Z,101884.00
2019-03-25T21:11:23.708Z,101891.00
2019-03-25T21:13:54.915Z,101898.00
2019-03-25T21:16:26.147Z,101900.00
2019-03-25T21:18:57.266Z,101907.00
2019-03-25T21:21:28.624Z,101918.00
2019-03-25T21:24:00.538Z,101916.00
2019-03-25T21:26:31.599Z,101922.00
2019-03-25T21:29:03.258Z,101923.00
2019-03-25T21:31:34.597Z,101930.00
2019-03-25T21:34:05.752Z,101929.00
2019-03-25T21:36:37.070Z,101940.00
2019-03-25T21:39:09.744Z,101944.00
2019-03-25T21:41:40.999Z,101944.00
2019-03-25T21:44:12.477Z,101942.00
2019-03-25T21:46:43.822Z,101953.00
2019-03-25T21:49:18.180Z,101936.00
2019-03-25T21:51:49.603Z,101947.00
2019-03-25T21:54:20.810Z,101942.00
2019-03-25T21:56:52.100Z,101951.00
2019-03-25T21:59:23.293Z,101948.00
2019-03-25T22:01:57.691Z,101954.00
2019-03-25T22:04:29.171Z,101955.00
2019-03-25T22:07:00.557Z,101958.00
2019-03-25T22:09:32.071Z,101958.00
2019-03-25T22:12:03.302Z,101970.00
2019-03-25T22:14:34.593Z,101961.00
2019-03-25T22:17:05.820Z,101956.00
2019-03-25T22:19:37.023Z,101950.00
2019-03-25T22:22:08.216Z,101965.00
2019-03-25T22:24:39.428Z,101967.00
2019-03-25T22:27:10.695Z,101970.00
2019-03-25T22:29:42.915Z,101964.00
2019-03-25T22:32:14.528Z,101974.00
2019-03-25T22:34:45.929Z,101981.00
2019-03-25T22:37:17.211Z,101982.00
2019-03-25T22:39:48.464Z,101984.00
2019-03-25T22:42:19.644Z,101985.00
2019-03-25T22:44:50.744Z,101978.00
2019-03-25T22:47:21.913Z,101989.00
2019-03-25T22:49:53.106Z,101987.00
2019-03-25T22:52:24.612Z,101979.00
2019-03-25T22:54:56.536Z,101979.00
2019-03-25T22:57:27.656Z,101993.00
2019-03-25T22:59:59.102Z,101993.00
2019-03-25T23:02:30.711Z,101987.00
2019-03-25T23:05:01.978Z,101998.00
2019-03-25T23:07:33.074Z,102003.00
2019-03-25T23:10:06.690Z,102009.00
2019-03-25T23:12:37.897Z,102011.00
2019-03-25T23:15:09.146Z,102010.00
2019-03-25T23:17:40.317Z,102014.00
2019-03-25T23:20:11.510Z,102015.00
2019-03-25T23:22:43.476Z,102009.00
2019-03-25T23:25:14.612Z,102011.00
2019-03-25T23:27:46.048Z,102011.00
2019-03-25T23:30:17.163Z,102013.00
2019-03-25T23:32:48.286Z,102009.00
2019-03-25T23:35:19.779Z,102019.00
2019-03-25T23:37:51.947Z,102015.00
2019-03-25T23:40:23.200Z,102016.00
2019-03-25T23:42:54.446Z,102018.00
2019-03-25T23:45:25.939Z,102017.00
2019-03-25T23:47:57.213Z,102012.00
2019-03-25T23:50:28.294Z,102016.00
2019-03-25T23:52:59.554Z,102016.00
2019-03-25T23:55:30.675Z,102008.00
2019-03-25T23:58:01.850Z,102017.00
